Time;durP1;ratioP1;P1;durP2;ratioP2;P2;SDS_P1;SDS_P2;PMS_P1;PMS_P2;Temp;Humidity;BMP_temperature;BMP_pressure;BME280_temperature;BME280_humidity;BME280_pressure;Samples;Min_cycle;Max_cycle;Signal;HPM_P1;HPM_P2
2023/07/12 00:00:58;;;;;;;1.35;0.90;;;;;;;19.16;75.05;100794.34;5074964;28;20032;-81
2023/07/12 00:03:23;;;;;;;0.57;0.57;;;;;;;19.11;75.05;100789.34;5073689;28;20025;-81
2023/07/12 00:05:51;;;;;;;0.60;0.60;;;;;;;19.08;75.25;100786.84;5058010;28;20393;-81
2023/07/12 00:08:23;;;;;;;0.65;0.60;;;;;;;19.06;75.29;100788.75;5054563;28;20389;-81
2023/07/12 00:10:50;;;;;;;0.70;0.70;;;;;;;19.01;75.58;100788.13;5054043;28;20440;-81
2023/07/12 00:13:17;;;;;;;0.63;0.63;;;;;;;18.97;75.51;100783.97;5054616;28;20020;-81
2023/07/12 00:15:43;;;;;;;0.73;0.73;;;;;;;18.95;75.28;100791.91;5054532;28;20025;-81
2023/07/12 00:18:14;;;;;;;0.98;0.80;;;;;;;18.93;75.13;100793.78;5053524;28;20021;-81
2023/07/12 00:20:40;;;;;;;0.68;0.63;;;;;;;18.89;76.80;100800.09;5054756;28;20029;-81
2023/07/12 00:23:05;;;;;;;1.40;0.70;;;;;;;18.85;76.44;100811.69;5054529;28;20027;-81
2023/07/12 00:25:33;;;;;;;0.70;0.70;;;;;;;18.86;75.60;100826.53;5053683;28;20108;-81
2023/07/12 00:28:00;;;;;;;0.60;0.60;;;;;;;18.82;76.13;100815.34;5054458;28;20100;-81
2023/07/12 00:30:34;;;;;;;0.60;0.60;;;;;;;18.83;77.26;100824.06;5054454;28;20413;-81
2023/07/12 00:33:03;;;;;;;1.95;0.50;;;;;;;18.80;77.26;100835.59;5053533;28;20036;-81
2023/07/12 00:35:30;;;;;;;0.60;0.60;;;;;;;18.78;76.45;100834.81;5066279;28;20059;-81
2023/07/12 00:37:58;;;;;;;0.75;0.57;;;;;;;18.75;76.86;100834.13;5074288;28;20038;-81
2023/07/12 00:40:38;;;;;;;0.70;0.70;;;;;;;18.73;78.27;100842.09;5073164;28;20054;-81
2023/07/12 00:43:28;;;;;;;1.30;1.20;;;;;;;18.68;81.72;100846.72;5073001;28;20025;-81
2023/07/12 00:45:56;;;;;;;1.00;1.00;;;;;;;18.60;79.50;100860.22;5073425;28;20370;-80
2023/07/12 00:48:21;;;;;;;2.25;1.30;;;;;;;18.52;80.27;100855.34;5073819;28;20482;-80
2023/07/12 00:50:48;;;;;;;1.73;1.07;;;;;;;18.48;79.41;100851.19;5073900;28;20047;-81
2023/07/12 00:53:20;;;;;;;1.10;1.00;;;;;;;18.49;81.59;100849.38;5072453;28;20028;-81
2023/07/12 00:56:10;;;;;;;1.52;1.30;;;;;;;18.44;80.86;100854.88;5073388;28;20024;-81
2023/07/12 00:58:43;;;;;;;0.70;0.70;;;;;;;18.43;79.16;100874.19;5073866;28;20106;-81
2023/07/12 01:01:09;;;;;;;1.60;1.00;;;;;;;18.43;80.74;100871.56;5072800;28;20078;-81
2023/07/12 01:03:38;;;;;;;0.90;0.90;;;;;;;18.36;80.21;100883.28;5073227;28;20016;-81
2023/07/12 01:06:06;;;;;;;1.00;1.00;;;;;;;18.30;79.87;100892.31;5073425;28;20036;-81
2023/07/12 01:08:32;;;;;;;2.22;1.65;;;;;;;18.21;82.23;100880.44;5072589;28;20017;-81
2023/07/12 01:11:01;;;;;;;2.83;1.60;;;;;;;18.18;80.88;100877.13;5073834;28;20021;-81
2023/07/12 01:13:33;;;;;;;1.70;1.50;;;;;;;18.13;80.83;100879.09;5072582;28;20032;-81
2023/07/12 01:16:00;;;;;;;3.10;1.90;;;;;;;18.06;80.69;100908.28;5073673;28;20025;-80
2023/07/12 01:18:25;;;;;;;1.95;1.75;;;;;;;18.03;80.42;100882.16;5073033;28;20043;-81
2023/07/12 01:21:13;;;;;;;1.70;1.60;;;;;;;18.00;81.39;100837.69;5072581;28;20400;-81
2023/07/12 01:23:40;;;;;;;2.33;1.30;;;;;;;17.96;81.05;100838.69;5073384;28;20063;-81
2023/07/12 01:26:28;;;;;;;1.50;1.40;;;;;;;17.94;80.06;100848.41;5073007;28;20032;-81
2023/07/12 01:28:57;;;;;;;1.50;1.40;;;;;;;17.91;81.69;100835.41;5072420;28;20048;-81
2023/07/12 01:31:25;;;;;;;1.25;1.10;;;;;;;17.83;80.87;100846.31;5073863;28;20155;-81
2023/07/12 01:33:51;;;;;;;1.25;1.15;;;;;;;17.85;82.09;100854.09;5073139;28;20035;-82
2023/07/12 01:36:17;;;;;;;1.20;1.10;;;;;;;17.86;81.54;100866.31;5070055;28;20052;-82
2023/07/12 01:38:43;;;;;;;1.73;1.30;;;;;;;17.84;82.27;100839.25;5073261;28;20476;-82
2023/07/12 01:41:08;;;;;;;1.37;1.20;;;;;;;17.81;81.02;100828.91;5072349;28;20536;-83
2023/07/12 01:43:34;;;;;;;1.27;1.10;;;;;;;17.79;80.52;100857.84;5072303;28;20024;-84
2023/07/12 01:45:59;;;;;;;0.87;0.87;;;;;;;17.78;81.30;100858.78;5072898;28;20017;-83
2023/07/12 01:48:25;;;;;;;0.63;0.60;;;;;;;17.74;82.13;100846.69;5072355;28;20032;-83
2023/07/12 01:50:50;;;;;;;0.63;0.63;;;;;;;17.70;83.12;100825.00;5072262;28;20021;-82
2023/07/12 01:53:15;;;;;;;0.73;0.70;;;;;;;17.66;80.19;100817.31;5072110;28;20028;-83
2023/07/12 01:55:44;;;;;;;1.63;0.80;;;;;;;17.63;80.58;100799.09;5072057;28;20031;-83
2023/07/12 01:58:12;;;;;;;0.70;0.55;;;;;;;17.63;80.43;100813.09;5069699;28;20422;-83
2023/07/12 02:00:38;;;;;;;0.73;0.73;;;;;;;17.65;81.87;100827.00;5053026;28;20072;-83
2023/07/12 02:03:04;;;;;;;1.57;0.80;;;;;;;17.60;81.80;100828.97;5052301;28;20048;-83
2023/07/12 02:05:29;;;;;;;0.90;0.90;;;;;;;17.59;81.94;100835.13;5052313;28;20473;-83
2023/07/12 02:07:56;;;;;;;0.93;0.80;;;;;;;17.53;86.01;100811.78;5052889;28;20033;-84
2023/07/12 02:10:23;;;;;;;0.77;0.77;;;;;;;17.42;83.80;100821.00;5051837;28;20383;-83
2023/07/12 02:12:49;;;;;;;0.70;0.70;;;;;;;17.38;86.22;100800.22;5067411;28;20028;-84
2023/07/12 02:15:15;;;;;;;3.17;1.10;;;;;;;17.27;81.72;100779.69;5072040;28;20051;-83
2023/07/12 02:17:40;;;;;;;1.05;0.90;;;;;;;17.26;82.12;100826.06;5072009;28;20103;-83
2023/07/12 02:20:08;;;;;;;1.00;0.90;;;;;;;17.32;81.90;100859.06;5072196;28;20025;-83
2023/07/12 02:22:35;;;;;;;1.05;0.95;;;;;;;17.34;82.52;100854.56;5072626;28;20024;-83
2023/07/12 02:25:01;;;;;;;0.77;0.77;;;;;;;17.36;82.21;100855.34;5071966;28;20044;-83
2023/07/12 02:27:26;;;;;;;1.10;0.77;;;;;;;17.35;82.77;100865.94;5072298;28;20397;-83
2023/07/12 02:29:52;;;;;;;0.80;0.80;;;;;;;17.33;82.85;100866.00;5072822;28;20020;-84
2023/07/12 02:32:18;;;;;;;0.73;0.73;;;;;;;17.25;84.13;100844.47;5071879;28;20025;-83
2023/07/12 02:34:43;;;;;;;1.33;1.20;;;;;;;17.25;86.01;100829.63;5072754;28;20376;-83
2023/07/12 02:37:08;;;;;;;1.30;1.13;;;;;;;17.21;83.70;100820.16;5071797;28;20394;-82
2023/07/12 02:39:37;;;;;;;1.10;1.00;;;;;;;17.19;85.98;100834.28;5071772;28;20037;-83
2023/07/12 02:42:02;;;;;;;1.30;1.20;;;;;;;17.05;89.53;100819.13;5072356;28;20045;-84
2023/07/12 02:44:28;;;;;;;1.50;1.40;;;;;;;16.96;86.08;100808.09;5072376;28;20066;-84
2023/07/12 02:46:53;;;;;;;1.45;1.35;;;;;;;17.06;88.51;100839.16;5071977;28;20024;-84
2023/07/12 02:49:19;;;;;;;0.80;0.80;;;;;;;16.98;86.14;100829.03;5072089;28;20033;-84
2023/07/12 02:51:44;;;;;;;1.60;1.40;;;;;;;17.02;87.87;100842.84;5072602;28;20047;-83
2023/07/12 02:54:16;;;;;;;1.70;1.43;;;;;;;16.96;88.58;100843.97;5071402;28;20150;-83
2023/07/12 02:56:41;;;;;;;1.45;1.35;;;;;;;16.93;88.08;100841.44;5070475;28;20040;-83
2023/07/12 02:59:06;;;;;;;1.20;1.10;;;;;;;16.85;86.61;100833.03;5071355;28;20090;-83
2023/07/12 03:01:32;;;;;;;1.50;1.40;;;;;;;16.91;88.92;100849.38;5072351;28;20024;-83
2023/07/12 03:03:57;;;;;;;1.27;1.17;;;;;;;16.87;86.97;100854.81;5072228;28;20028;-83
2023/07/12 03:06:23;;;;;;;1.63;1.27;;;;;;;16.78;88.63;100835.91;5061822;28;20021;-83
2023/07/12 03:08:48;;;;;;;1.40;1.30;;;;;;;16.80;86.59;100846.34;5055939;28;20484;-83
2023/07/12 03:11:14;;;;;;;1.40;1.27;;;;;;;16.78;87.54;100851.63;5055608;28;20108;-83
2023/07/12 03:13:40;;;;;;;1.15;1.00;;;;;;;16.75;88.84;100849.16;5055305;28;20029;-83
2023/07/12 03:16:07;;;;;;;1.30;1.20;;;;;;;16.73;89.04;100853.59;5055924;28;20021;-83
2023/07/12 03:18:32;;;;;;;1.73;1.40;;;;;;;16.73;88.78;100868.47;5055550;28;20028;-83
2023/07/12 03:21:03;;;;;;;1.40;1.30;;;;;;;16.68;88.45;100869.53;5055263;28;20036;-83
2023/07/12 03:23:30;;;;;;;1.25;1.15;;;;;;;16.67;89.81;100866.94;5055232;28;20017;-83
2023/07/12 03:25:55;;;;;;;0.88;0.88;;;;;;;16.64;88.48;100861.84;5055696;28;20079;-82
2023/07/12 03:28:20;;;;;;;1.30;1.20;;;;;;;16.61;90.23;100854.09;5054760;28;20457;-83
2023/07/12 03:31:09;;;;;;;1.40;1.30;;;;;;;16.64;89.72;100867.09;5055806;28;20096;-82
2023/07/12 03:33:35;;;;;;;0.95;0.90;;;;;;;16.64;92.49;100867.94;5055563;28;20032;-83
2023/07/12 03:36:01;;;;;;;0.90;0.77;;;;;;;16.59;90.53;100866.41;5061171;28;20040;-83
2023/07/12 03:38:28;;;;;;;1.27;1.00;;;;;;;16.61;92.40;100870.66;5075306;28;20340;-83
2023/07/12 03:41:00;;;;;;;2.35;1.55;;;;;;;16.51;93.56;100869.31;5075619;28;20350;-83
2023/07/12 03:43:26;;;;;;;1.90;1.33;;;;;;;16.51;92.01;100872.81;5074730;28;20032;-83
2023/07/12 03:45:53;;;;;;;2.78;1.60;;;;;;;16.46;93.26;100876.53;5075595;28;20020;-82
2023/07/12 03:48:20;;;;;;;2.28;1.65;;;;;;;16.43;92.56;100874.91;5074307;28;20024;-83
2023/07/12 03:50:48;;;;;;;5.50;2.35;;;;;;;16.36;96.34;100882.13;5075219;28;20425;-83
2023/07/12 03:53:14;;;;;;;1.65;1.55;;;;;;;16.35;92.21;100888.28;5075139;28;20021;-83
2023/07/12 03:55:41;;;;;;;1.93;1.60;;;;;;;16.41;93.94;100889.81;5074487;28;20020;-83
2023/07/12 03:58:08;;;;;;;2.65;1.60;;;;;;;16.41;93.10;100887.19;5074905;28;20024;-82
2023/07/12 04:00:33;;;;;;;2.22;1.63;;;;;;;16.38;92.60;100889.09;5075203;28;20020;-83
2023/07/12 04:02:58;;;;;;;2.47;2.20;;;;;;;16.32;94.00;100893.63;5074219;28;20032;-82
2023/07/12 04:05:24;;;;;;;2.53;2.07;;;;;;;16.23;95.49;100894.00;5074645;28;20107;-82
2023/07/12 04:07:51;;;;;;;4.27;2.30;;;;;;;16.17;93.94;100900.31;5075208;28;20165;-82
2023/07/12 04:10:16;;;;;;;3.25;2.08;;;;;;;16.12;94.86;100889.16;5073847;28;20028;-82
2023/07/12 04:12:42;;;;;;;3.97;2.40;;;;;;;16.08;95.12;100887.56;5075001;28;20090;-82
2023/07/12 04:15:10;;;;;;;1.97;1.87;;;;;;;16.06;95.02;100887.63;5074748;28;20035;-82
2023/07/12 04:17:35;;;;;;;2.20;2.00;;;;;;;16.09;95.07;100896.28;5072583;28;20107;-82
2023/07/12 04:20:01;;;;;;;4.40;2.70;;;;;;;16.03;97.42;100893.00;5074212;28;20103;-82
2023/07/12 04:22:26;;;;;;;2.87;2.20;;;;;;;16.04;95.18;100906.91;5073546;28;20503;-82
2023/07/12 04:24:53;;;;;;;2.20;1.90;;;;;;;16.04;94.16;100918.22;5073395;28;20542;-82
2023/07/12 04:27:21;;;;;;;;;;;;;;;16.05;95.08;100911.25;5074609;28;20476;-82
2023/07/12 04:29:47;;;;;;;2.55;2.00;;;;;;;16.07;94.11;100912.03;5074391;28;19948;-82
2023/07/12 04:32:12;;;;;;;3.73;2.17;;;;;;;16.11;94.00;100903.16;5073318;28;20401;-82
2023/07/12 04:34:38;;;;;;;2.20;2.00;;;;;;;16.20;94.61;100910.69;5074084;28;20028;-82
2023/07/12 04:37:04;;;;;;;2.00;1.90;;;;;;;16.25;93.31;100900.03;5074279;28;20036;-82
2023/07/12 04:39:29;;;;;;;5.27;2.43;;;;;;;16.23;95.42;100907.09;5073195;28;20035;-82
2023/07/12 04:41:57;;;;;;;2.67;2.30;;;;;;;16.27;94.60;100910.44;5074372;28;20016;-83
2023/07/12 04:44:22;;;;;;;2.75;2.17;;;;;;;16.27;94.70;100913.88;5072819;28;20066;-82
2023/07/12 04:46:47;;;;;;;2.73;2.30;;;;;;;16.18;96.67;100888.06;5073813;28;20071;-82
2023/07/12 04:49:13;;;;;;;2.87;2.30;;;;;;;16.25;95.31;100904.41;5073455;28;20115;-82
2023/07/12 04:51:38;;;;;;;2.87;2.33;;;;;;;16.23;95.70;100912.31;5073348;28;20153;-82
2023/07/12 04:54:06;;;;;;;3.43;2.10;;;;;;;16.19;95.01;100902.88;5074086;28;20032;-83
2023/07/12 04:56:31;;;;;;;3.45;2.22;;;;;;;16.20;93.38;100904.56;5073882;28;20040;-83
2023/07/12 04:58:57;;;;;;;2.37;2.00;;;;;;;16.27;94.13;100907.81;5073062;28;20028;-82
2023/07/12 05:01:25;;;;;;;2.73;2.00;;;;;;;16.31;94.89;100919.88;5073277;28;20029;-82
2023/07/12 05:03:50;;;;;;;4.05;2.10;;;;;;;16.25;96.50;100902.66;5073822;28;20021;-83
2023/07/12 05:06:16;;;;;;;2.20;1.90;;;;;;;16.30;93.36;100913.78;5072623;28;20028;-82
2023/07/12 05:08:41;;;;;;;2.10;1.60;;;;;;;16.36;93.06;100910.94;5073853;28;20489;-82
2023/07/12 05:11:07;;;;;;;2.30;1.60;;;;;;;16.45;92.39;100922.81;5073453;28;20090;-82
2023/07/12 05:13:33;;;;;;;2.33;1.60;;;;;;;16.47;93.68;100931.47;5072833;28;20062;-82
2023/07/12 05:15:59;;;;;;;4.45;1.90;;;;;;;16.50;94.03;100926.13;5073404;28;20016;-83
2023/07/12 05:18:25;;;;;;;2.00;1.80;;;;;;;16.53;93.82;100927.75;5073384;28;20029;-84
2023/07/12 05:20:51;;;;;;;4.03;2.23;;;;;;;16.55;94.47;100932.97;5072455;28;20098;-87
2023/07/12 05:23:17;;;;;;;2.10;1.90;;;;;;;16.58;94.41;100924.97;5073236;28;20032;-83
2023/07/12 05:25:50;;;;;;;3.13;1.77;;;;;;;16.73;94.27;100933.97;5073017;28;20502;-83
2023/07/12 05:28:16;;;;;;;3.92;2.20;;;;;;;16.76;93.98;100932.09;5071830;28;20032;-83
2023/07/12 05:30:42;;;;;;;3.85;2.10;;;;;;;16.80;94.99;100946.78;5073111;28;20118;-85
2023/07/12 05:33:07;;;;;;;3.80;2.37;;;;;;;16.78;95.12;100926.78;5072848;28;20025;-83
2023/07/12 05:35:32;;;;;;;4.07;2.37;;;;;;;16.79;93.93;100929.34;5071967;28;20097;-83
2023/07/12 05:37:57;;;;;;;4.50;2.50;;;;;;;16.72;94.16;100927.06;5073264;28;20039;-83
2023/07/12 05:40:24;;;;;;;3.17;2.30;;;;;;;16.72;93.92;100938.38;5072767;28;20025;-83
2023/07/12 05:42:50;;;;;;;3.33;2.22;;;;;;;16.74;94.23;100939.19;5072182;28;20028;-83
2023/07/12 05:45:15;;;;;;;6.27;2.60;;;;;;;16.76;95.29;100939.97;5072510;28;20402;-84
2023/07/12 05:47:42;;;;;;;3.63;2.10;;;;;;;16.76;92.70;100934.72;5072523;28;20017;-84
2023/07/12 05:50:11;;;;;;;4.15;2.10;;;;;;;16.85;95.06;100935.28;5072524;28;20519;-83
2023/07/12 05:52:37;;;;;;;3.70;2.53;;;;;;;16.86;94.81;100926.50;5072996;28;20107;-84
2023/07/12 05:55:05;;;;;;;4.27;2.30;;;;;;;17.00;94.90;100941.69;5072084;28;20115;-83
2023/07/12 05:57:30;;;;;;;5.38;2.78;;;;;;;17.06;95.02;100939.66;5072932;28;20016;-83
2023/07/12 05:59:55;;;;;;;3.27;2.10;;;;;;;17.13;93.64;100942.91;5072572;28;20043;-83
2023/07/12 06:02:21;;;;;;;4.27;2.40;;;;;;;17.24;94.13;100943.31;5071609;28;20072;-83
2023/07/12 06:04:46;;;;;;;4.57;2.33;;;;;;;17.29;92.45;100951.81;5072862;28;20024;-83
2023/07/12 06:07:11;;;;;;;4.97;2.37;;;;;;;17.41;92.98;100970.59;5072936;28;20078;-82
2023/07/12 06:09:37;;;;;;;4.67;2.17;;;;;;;17.48;93.33;100955.44;5072106;28;20032;-83
2023/07/12 06:12:03;;;;;;;3.30;2.27;;;;;;;17.60;92.28;100962.78;5072875;28;20081;-83
2023/07/12 06:14:28;;;;;;;2.77;2.10;;;;;;;17.67;91.99;100964.25;5072658;28;20079;-83
2023/07/12 06:16:53;;;;;;;2.83;2.00;;;;;;;17.95;92.32;100963.03;5071679;28;20090;-83
2023/07/12 06:19:19;;;;;;;2.47;1.90;;;;;;;18.37;90.42;100972.53;5072262;28;20060;-83
2023/07/12 06:21:44;;;;;;;3.80;2.20;;;;;;;18.50;89.53;100966.72;5072648;28;20031;-83
2023/07/12 06:24:09;;;;;;;3.23;1.97;;;;;;;18.85;88.35;100961.56;5071539;28;20035;-83
2023/07/12 06:26:35;;;;;;;3.30;2.20;;;;;;;18.92;86.16;100973.47;5072596;28;20021;-83
2023/07/12 06:29:01;;;;;;;3.07;2.03;;;;;;;18.90;85.77;100969.22;5072668;28;20051;-81
2023/07/12 06:31:27;;;;;;;6.32;2.85;;;;;;;18.72;83.57;100963.94;5071466;28;20021;-82
2023/07/12 06:34:03;;;;;;;2.47;2.00;;;;;;;18.64;84.95;100956.41;5072899;28;20512;-82
2023/07/12 06:36:30;;;;;;;2.22;2.00;;;;;;;18.82;84.55;100985.38;5071810;28;20115;-83
2023/07/12 06:38:55;;;;;;;;;;;;;;;18.86;85.62;100991.34;5061988;28;20041;-83
2023/07/12 06:41:20;;;;;;;2.83;2.30;;;;;;;18.70;84.96;100992.06;5075430;28;19981;-83
2023/07/12 06:43:46;;;;;;;4.23;2.47;;;;;;;18.65;85.80;101015.06;5076137;28;20024;-83
2023/07/12 06:46:11;;;;;;;6.37;2.90;;;;;;;18.48;84.26;101007.97;5072837;28;20024;-81
2023/07/12 06:48:36;;;;;;;3.97;2.40;;;;;;;18.42;85.88;101008.28;5059846;28;20017;-82
2023/07/12 06:51:02;;;;;;;4.47;2.67;;;;;;;18.27;86.58;101010.66;5054978;28;20024;-82
2023/07/12 06:53:28;;;;;;;4.50;2.70;;;;;;;18.14;85.81;101013.00;5055052;28;20028;-83
2023/07/12 06:55:54;;;;;;;3.90;2.42;;;;;;;18.04;85.39;101017.78;5055397;28;20120;-84
2023/07/12 06:58:19;;;;;;;3.75;2.50;;;;;;;17.98;86.54;101020.69;5054589;28;20021;-83
2023/07/12 07:00:45;;;;;;;2.87;2.10;;;;;;;17.90;86.48;101022.78;5055891;28;20032;-84
2023/07/12 07:03:14;;;;;;;2.97;2.05;;;;;;;17.87;86.25;101023.75;5052813;28;20025;-84
2023/07/12 07:05:41;;;;;;;4.07;2.55;;;;;;;17.84;86.19;101036.16;5054658;28;20060;-84
2023/07/12 07:08:07;;;;;;;2.33;2.10;;;;;;;17.83;87.19;101039.69;5055979;28;20079;-83
2023/07/12 07:10:33;;;;;;;1.70;1.60;;;;;;;17.74;86.06;101041.81;5055541;28;20111;-79
2023/07/12 07:12:59;;;;;;;2.45;2.15;;;;;;;17.67;86.63;101043.00;5055220;28;20512;-84
2023/07/12 07:15:25;;;;;;;2.17;1.90;;;;;;;17.63;86.41;101037.91;5055585;28;20024;-83
2023/07/12 07:17:50;;;;;;;2.13;1.95;;;;;;;17.65;86.52;101036.06;5055665;28;20370;-82
2023/07/12 07:20:15;;;;;;;3.30;2.10;;;;;;;17.67;86.26;101035.13;5054843;28;20024;-83
2023/07/12 07:22:41;;;;;;;2.20;1.90;;;;;;;17.80;86.60;101042.44;5055630;28;20492;-82
2023/07/12 07:25:07;;;;;;;1.77;1.67;;;;;;;17.94;87.23;101032.22;5055387;28;20017;-83
2023/07/12 07:27:32;;;;;;;2.03;1.90;;;;;;;18.11;87.11;101038.53;5054871;28;20053;-83
2023/07/12 07:29:57;;;;;;;4.40;2.50;;;;;;;18.31;86.52;101051.66;5055714;28;20035;-82
2023/07/12 07:32:22;;;;;;;4.97;2.37;;;;;;;18.52;86.27;101060.31;5055211;28;20043;-82
2023/07/12 07:34:48;;;;;;;6.63;2.97;;;;;;;18.60;84.12;101062.59;5054596;28;20032;-84
2023/07/12 07:37:14;;;;;;;3.70;2.40;;;;;;;18.72;85.61;101063.84;5071417;28;20044;-85
2023/07/12 07:39:39;;;;;;;2.17;1.98;;;;;;;18.85;85.24;101072.00;5075064;28;20025;-80
2023/07/12 07:42:04;;;;;;;4.93;2.50;;;;;;;18.97;84.77;101071.47;5073540;28;20400;-79
2023/07/12 07:44:30;;;;;;;3.27;2.30;;;;;;;18.98;83.63;101067.91;5074627;28;20125;-79
2023/07/12 07:46:55;;;;;;;4.27;2.73;;;;;;;19.00;81.47;101070.47;5075313;28;20032;-79
2023/07/12 07:49:20;;;;;;;4.40;2.67;;;;;;;19.01;82.84;101072.16;5074074;28;20021;-78
2023/07/12 07:51:46;;;;;;;4.77;2.37;;;;;;;19.08;84.39;101075.34;5074847;28;20079;-79
2023/07/12 07:54:11;;;;;;;2.80;2.30;;;;;;;19.20;82.76;101069.50;5074900;28;20021;-80
2023/07/12 07:56:37;;;;;;;4.57;2.40;;;;;;;19.41;83.19;101070.25;5074395;28;20382;-79
2023/07/12 07:59:02;;;;;;;4.33;2.20;;;;;;;19.65;82.12;101063.84;5075170;28;20105;-79
2023/07/12 08:01:27;;;;;;;4.57;2.60;;;;;;;19.76;79.97;101077.31;5074142;28;20067;-80
2023/07/12 08:03:53;;;;;;;4.03;2.37;;;;;;;19.79;79.11;101068.41;5074812;28;20492;-80
2023/07/12 08:06:18;;;;;;;6.20;2.80;;;;;;;19.86;79.66;101077.75;5073377;28;20040;-80
2023/07/12 08:08:43;;;;;;;4.20;2.60;;;;;;;19.85;79.10;101076.03;5073852;28;20059;-81
2023/07/12 08:11:08;;;;;;;2.60;2.40;;;;;;;19.83;78.43;101085.78;5074302;28;20423;-80
2023/07/12 08:13:35;;;;;;;2.40;2.10;;;;;;;19.79;80.59;101089.47;5067208;28;20028;-80
2023/07/12 08:16:00;;;;;;;3.00;2.10;;;;;;;19.76;78.87;101090.50;5073873;28;20019;-80
2023/07/12 08:18:28;;;;;;;3.33;2.40;;;;;;;19.71;78.40;101092.50;5073967;28;20028;-80
2023/07/12 08:20:55;;;;;;;4.03;2.30;;;;;;;19.68;78.96;101096.13;5074782;28;20031;-80
2023/07/12 08:23:21;;;;;;;2.40;2.20;;;;;;;19.85;78.94;101097.94;5073467;28;20028;-80
2023/07/12 08:25:51;;;;;;;5.95;3.00;;;;;;;20.00;77.52;101100.75;5074530;28;20107;-79
2023/07/12 08:28:16;;;;;;;7.05;3.00;;;;;;;20.06;77.27;101100.44;5074511;28;20365;-82
2023/07/12 08:30:42;;;;;;;3.73;2.60;;;;;;;20.13;77.66;101104.47;5073777;28;20051;-82
2023/07/12 08:33:07;;;;;;;3.07;2.53;;;;;;;20.18;76.81;101096.31;5073820;28;20492;-81
2023/07/12 08:35:32;;;;;;;4.40;2.90;;;;;;;20.17;74.66;101102.53;5071908;28;20128;-82
2023/07/12 08:37:58;;;;;;;4.53;2.90;;;;;;;20.23;77.01;101107.47;5073222;28;20419;-82
2023/07/12 08:40:26;;;;;;;3.30;2.60;;;;;;;20.35;77.02;101109.47;5073793;28;20020;-82
2023/07/12 08:42:52;;;;;;;5.00;2.53;;;;;;;20.47;76.62;101107.97;5074215;28;20048;-82
2023/07/12 08:45:23;;;;;;;2.60;2.40;;;;;;;20.52;75.09;101110.38;5073145;28;20452;-82
2023/07/12 08:47:53;;;;;;;2.53;2.30;;;;;;;20.56;75.74;101111.06;5074445;28;20036;-82
2023/07/12 08:50:19;;;;;;;4.03;2.40;;;;;;;20.63;75.46;101107.16;5073727;28;20029;-82
2023/07/12 08:52:44;;;;;;;6.53;2.75;;;;;;;20.63;73.66;101110.66;5073239;28;20032;-82
2023/07/12 08:55:19;;;;;;;4.95;2.75;;;;;;;20.65;73.65;101110.56;5073264;28;20021;-81
2023/07/12 08:57:50;;;;;;;2.67;2.40;;;;;;;20.62;75.25;101119.50;5072949;28;20025;-82
2023/07/12 09:00:20;;;;;;;2.40;2.20;;;;;;;20.68;75.90;101110.41;5073699;28;20099;-83
2023/07/12 09:02:46;;;;;;;3.58;2.50;;;;;;;20.70;74.28;101110.31;5072558;28;20039;-84
2023/07/12 09:05:21;;;;;;;2.42;2.22;;;;;;;20.72;73.49;101119.00;5072805;28;20392;-84
2023/07/12 09:07:55;;;;;;;3.95;2.72;;;;;;;20.91;73.61;101125.00;5073888;28;20024;-85
2023/07/12 09:10:33;;;;;;;5.95;3.00;;;;;;;20.94;72.55;101121.38;5073322;28;20105;-84
2023/07/12 09:13:00;;;;;;;3.20;2.67;;;;;;;20.96;71.78;101124.75;5072824;28;20029;-83
2023/07/12 09:15:33;;;;;;;4.18;2.65;;;;;;;21.12;73.65;101124.75;5073079;28;20131;-83
2023/07/12 09:18:00;;;;;;;2.75;2.30;;;;;;;21.45;74.25;101122.03;5073064;28;20039;-82
2023/07/12 09:20:28;;;;;;;5.80;3.20;;;;;;;21.79;70.88;101118.41;5072681;28;20036;-81
2023/07/12 09:22:54;;;;;;;4.07;2.72;;;;;;;22.04;71.23;101120.44;5073497;28;20099;-87
2023/07/12 09:25:23;;;;;;;4.40;2.60;;;;;;;22.17;69.74;101110.84;5072848;28;20441;-84
2023/07/12 09:27:48;;;;;;;4.85;2.67;;;;;;;22.37;67.80;101104.34;5072331;28;20473;-83
2023/07/12 09:30:19;;;;;;;2.70;2.43;;;;;;;22.49;69.52;101110.72;5072930;28;20027;-83
2023/07/12 09:32:48;;;;;;;2.55;2.35;;;;;;;22.77;68.68;101108.13;5072784;28;20049;-81
2023/07/12 09:35:40;;;;;;;4.18;2.20;;;;;;;23.05;66.52;101109.06;5073000;28;20033;-84
2023/07/12 09:38:12;;;;;;;2.85;2.40;;;;;;;23.37;64.47;101119.38;5072799;28;20043;-82
2023/07/12 09:40:40;;;;;;;4.57;2.80;;;;;;;23.34;65.05;101112.50;5072294;28;20047;-82
2023/07/12 09:43:15;;;;;;;4.22;2.75;;;;;;;23.44;64.90;101118.03;5072606;28;20021;-82
2023/07/12 09:45:54;;;;;;;3.67;2.80;;;;;;;23.42;62.45;101111.97;5073202;28;20032;-83
2023/07/12 09:48:37;;;;;;;5.78;2.78;;;;;;;23.32;61.04;101105.59;5071869;28;20025;-84
2023/07/12 09:51:28;;;;;;;3.67;2.60;;;;;;;23.27;60.39;101105.88;5072428;28;20029;-84
2023/07/12 09:54:41;;;;;;;3.67;2.50;;;;;;;23.41;62.82;101105.84;5072459;28;20036;-83
2023/07/12 09:57:15;;;;;;;3.38;2.60;;;;;;;23.43;62.62;101103.09;5035599;28;20052;-83
2023/07/12 09:59:46;;;;;;;3.80;2.47;;;;;;;23.52;58.18;101091.91;5064943;28;20032;-82
2023/07/12 10:02:37;;;;;;;4.60;2.55;;;;;;;23.62;62.38;101094.78;5071755;28;20024;-79
2023/07/12 10:05:14;;;;;;;2.40;2.20;;;;;;;23.82;63.37;101088.16;5072924;28;20100;-80
2023/07/12 10:08:04;;;;;;;4.25;2.53;;;;;;;24.03;60.60;101077.06;5072549;28;20032;-78
2023/07/12 10:10:42;;;;;;;3.97;2.50;;;;;;;24.10;59.94;101086.28;5072432;28;20032;-78
2023/07/12 10:13:23;;;;;;;2.30;2.10;;;;;;;24.15;57.79;101080.69;5072561;28;20029;-78
2023/07/12 10:15:49;;;;;;;2.65;2.30;;;;;;;24.15;58.66;101084.16;5071820;28;20032;-79
2023/07/12 10:18:23;;;;;;;3.15;2.08;;;;;;;24.27;59.63;101084.28;5071900;28;20029;-79
2023/07/12 10:20:49;;;;;;;2.10;1.90;;;;;;;24.50;59.90;101086.16;5072564;28;20032;-79
2023/07/12 10:23:17;;;;;;;3.58;2.03;;;;;;;24.71;55.33;101087.44;5071785;28;20137;-79
2023/07/12 10:25:48;;;;;;;2.08;1.85;;;;;;;24.59;58.04;101091.75;5072701;28;20021;-79
2023/07/12 10:28:27;;;;;;;2.05;1.73;;;;;;;24.65;58.38;101092.19;5071469;28;20103;-85
2023/07/12 10:30:58;;;;;;;1.83;1.60;;;;;;;24.88;58.66;101088.88;5071729;28;20384;-85
2023/07/12 10:33:34;;;;;;;3.42;2.00;;;;;;;25.06;54.85;101098.16;5072288;28;20025;-83
2023/07/12 10:36:04;;;;;;;2.15;1.60;;;;;;;24.86;55.27;101093.44;5071737;28;20136;-86
2023/07/12 10:38:31;;;;;;;1.95;1.60;;;;;;;24.79;56.30;101109.78;5072082;28;20051;-83
2023/07/12 10:41:24;;;;;;;2.28;1.63;;;;;;;24.94;56.39;101097.22;5072371;28;20469;-84
2023/07/12 10:44:06;;;;;;;2.60;1.88;;;;;;;24.99;52.30;101099.56;5061560;28;20032;-85
2023/07/12 10:46:36;;;;;;;2.72;1.88;;;;;;;24.81;52.44;101102.56;5072161;28;20083;-85
2023/07/12 10:49:06;;;;;;;3.40;1.70;;;;;;;24.82;55.56;101098.97;5072485;28;20108;-86
2023/07/12 10:51:39;;;;;;;2.70;1.90;;;;;;;24.90;52.50;101102.88;5071518;28;20031;-85
2023/07/12 10:54:25;;;;;;;2.63;1.60;;;;;;;24.88;55.19;101099.50;5072293;28;20024;-85
2023/07/12 10:56:56;;;;;;;2.50;1.60;;;;;;;24.77;50.74;101097.59;5071309;28;20132;-85
2023/07/12 10:59:33;;;;;;;2.88;1.80;;;;;;;24.82;54.86;101093.66;5071231;28;20024;-83
2023/07/12 11:02:25;;;;;;;2.35;1.50;;;;;;;24.72;55.39;101092.63;5071923;28;20032;-84
2023/07/12 11:04:51;;;;;;;2.25;1.50;;;;;;;24.54;55.14;101091.25;5071832;28;20115;-89
2023/07/12 11:07:16;;;;;;;1.40;1.30;;;;;;;24.50;54.87;101094.13;5071876;28;20033;-87
2023/07/12 11:09:47;;;;;;;1.53;1.33;;;;;;;24.61;56.56;101100.47;5072635;28;20020;-90
2023/07/12 11:12:29;;;;;;;2.08;1.55;;;;;;;24.47;52.60;101098.81;5071277;28;20128;-86
2023/07/12 11:15:04;;;;;;;2.35;1.80;;;;;;;24.29;53.03;101095.63;5072507;28;20103;-88
2023/07/12 11:17:47;;;;;;;2.17;1.60;;;;;;;24.03;54.79;101099.13;5071711;28;20082;-84
2023/07/12 11:20:22;;;;;;;1.88;1.58;;;;;;;23.86;54.65;101094.09;5070803;28;20029;-88
2023/07/12 11:22:47;;;;;;;1.73;1.30;;;;;;;23.74;55.51;101101.91;5071388;28;20028;-86
2023/07/12 11:25:27;;;;;;;1.37;1.27;;;;;;;24.07;56.71;101094.47;5070969;28;20036;-87
2023/07/12 11:27:53;;;;;;;4.80;1.80;;;;;;;24.43;56.29;101098.13;5075579;28;20033;-86
2023/07/12 11:30:39;;;;;;;2.50;1.57;;;;;;;24.78;52.77;101092.19;5075232;28;20070;-85
2023/07/12 11:33:26;;;;;;;4.88;2.30;;;;;;;25.14;50.79;101093.13;5075274;28;20049;-86